TimeCDT,TemperatureF,Dew PointF,Humidity,Sea Level PressureIn,VisibilityMPH,Wind Direction,Wind SpeedMPH,Gust SpeedMPH,PrecipitationIn,Events,Conditions,WindDirDegrees,DateUTC
12:15 AM,62.6,60.8,94,29.77,10.0,SE,3.5,-,N/A,,Clear,140,2013-08-07 05:15:00
12:35 AM,62.6,60.8,94,29.78,10.0,Calm,Calm,-,N/A,,Clear,0,2013-08-07 05:35:00
12:56 AM,62.6,60.8,94,29.78,10.0,Calm,Calm,-,N/A,,Clear,0,2013-08-07 05:56:00
1:16 AM,62.6,60.8,94,29.77,10.0,Calm,Calm,-,N/A,,Clear,0,2013-08-07 06:16:00
1:35 AM,60.8,60.8,100,29.79,10.0,NW,3.5,-,N/A,,Clear,320,2013-08-07 06:35:00
1:56 AM,60.8,59.0,94,29.79,10.0,NW,3.5,-,N/A,,Clear,310,2013-08-07 06:56:00
2:16 AM,60.8,60.8,100,29.79,10.0,NW,3.5,-,N/A,,Clear,310,2013-08-07 07:16:00
2:35 AM,62.6,60.8,94,29.80,10.0,NW,3.5,-,N/A,,Clear,320,2013-08-07 07:35:00
2:56 AM,60.8,60.8,100,29.79,10.0,Calm,Calm,-,N/A,,Clear,0,2013-08-07 07:56:00
3:16 AM,60.8,59.0,94,29.79,10.0,Calm,Calm,-,N/A,,Clear,0,2013-08-07 08:16:00
3:35 AM,60.8,59.0,94,29.79,10.0,Calm,Calm,-,N/A,,Clear,0,2013-08-07 08:35:00
3:56 AM,60.8,59.0,94,29.79,10.0,Calm,Calm,-,N/A,,Clear,0,2013-08-07 08:56:00
4:16 AM,59.0,59.0,100,29.79,10.0,North,3.5,-,N/A,,Clear,350,2013-08-07 09:16:00
4:35 AM,59.0,59.0,100,29.79,10.0,NW,3.5,-,N/A,,Clear,310,2013-08-07 09:35:00
4:56 AM,60.8,60.8,100,29.80,10.0,WNW,3.5,-,N/A,,Clear,300,2013-08-07 09:56:00
5:15 AM,60.8,59.0,94,29.81,10.0,Calm,Calm,-,N/A,,Clear,0,2013-08-07 10:15:00
5:36 AM,59.0,59.0,100,29.82,10.0,Calm,Calm,-,N/A,,Clear,0,2013-08-07 10:36:00
5:55 AM,59.0,57.2,94,29.82,10.0,NNW,5.8,-,N/A,,Clear,330,2013-08-07 10:55:00
6:15 AM,59.0,59.0,100,29.83,10.0,WNW,3.5,-,N/A,,Mostly Cloudy,290,2013-08-07 11:15:00
6:35 AM,60.8,59.0,94,29.84,10.0,NW,5.8,-,N/A,,Overcast,310,2013-08-07 11:35:00
6:55 AM,60.8,59.0,94,29.84,7.0,NW,5.8,-,N/A,,Overcast,310,2013-08-07 11:55:00
7:16 AM,60.8,59.0,94,29.85,5.0,NW,6.9,-,N/A,,Overcast,310,2013-08-07 12:16:00
7:35 AM,60.8,60.8,100,29.86,4.0,NW,8.1,-,N/A,,Overcast,310,2013-08-07 12:35:00
7:55 AM,60.8,60.8,100,29.86,5.0,NNW,10.4,-,N/A,,Overcast,330,2013-08-07 12:55:00
8:16 AM,60.8,60.8,100,29.88,5.0,NNW,9.2,-,N/A,,Overcast,330,2013-08-07 13:16:00
8:35 AM,62.6,60.8,94,29.88,7.0,NW,6.9,-,N/A,,Overcast,320,2013-08-07 13:35:00
8:55 AM,62.6,60.8,94,29.88,10.0,North,5.8,-,N/A,,Overcast,350,2013-08-07 13:55:00
9:16 AM,62.6,60.8,94,29.89,10.0,North,3.5,-,N/A,,Overcast,350,2013-08-07 14:16:00
9:35 AM,64.4,62.6,94,29.90,10.0,NNW,9.2,-,N/A,,Overcast,330,2013-08-07 14:35:00
9:55 AM,66.2,62.6,88,29.91,10.0,NNW,8.1,-,N/A,,Overcast,330,2013-08-07 14:55:00
10:16 AM,66.2,62.6,88,29.92,10.0,NNW,9.2,-,N/A,,Overcast,330,2013-08-07 15:16:00
10:35 AM,66.2,62.6,88,29.92,10.0,NW,4.6,-,N/A,,Overcast,320,2013-08-07 15:35:00
10:55 AM,66.2,62.6,88,29.94,10.0,NW,6.9,-,N/A,,Overcast,310,2013-08-07 15:55:00
11:16 AM,69.8,62.6,78,29.94,7.0,NNW,5.8,-,N/A,,Overcast,330,2013-08-07 16:16:00
11:35 AM,69.8,62.6,78,29.95,10.0,NW,4.6,-,N/A,,Overcast,320,2013-08-07 16:35:00
11:56 AM,69.8,60.8,73,29.95,10.0,NW,9.2,-,N/A,,Overcast,320,2013-08-07 16:56:00
12:16 PM,69.8,59.0,68,29.96,10.0,NNW,5.8,-,N/A,,Overcast,340,2013-08-07 17:16:00
12:35 PM,69.8,59.0,68,29.96,10.0,North,6.9,-,N/A,,Overcast,350,2013-08-07 17:35:00
12:56 PM,71.6,59.0,64,29.95,10.0,North,6.9,-,N/A,,Mostly Cloudy,350,2013-08-07 17:56:00
1:16 PM,73.4,57.2,57,29.95,10.0,NNW,9.2,-,N/A,,Clear,340,2013-08-07 18:16:00
1:35 PM,73.4,57.2,57,29.95,10.0,NNW,11.5,18.4,N/A,,Clear,340,2013-08-07 18:35:00
1:56 PM,73.4,55.4,53,29.95,10.0,NW,10.4,-,N/A,,Clear,320,2013-08-07 18:56:00
2:16 PM,75.2,57.2,53,29.94,10.0,NW,11.5,17.3,N/A,,Clear,320,2013-08-07 19:16:00
2:35 PM,77.0,55.4,47,29.95,10.0,NNW,11.5,16.1,N/A,,Clear,330,2013-08-07 19:35:00
2:56 PM,77.0,55.4,47,29.94,10.0,NNW,9.2,-,N/A,,Clear,330,2013-08-07 19:56:00
3:16 PM,77.0,55.4,47,29.94,10.0,NW,12.7,17.3,N/A,,Clear,320,2013-08-07 20:16:00
3:35 PM,77.0,53.6,44,29.94,10.0,NW,10.4,-,N/A,,Clear,320,2013-08-07 20:35:00
3:56 PM,77.0,53.6,44,29.95,10.0,NNW,11.5,17.3,N/A,,Clear,330,2013-08-07 20:56:00
4:15 PM,75.2,53.6,47,29.94,10.0,WNW,10.4,-,N/A,,Clear,300,2013-08-07 21:15:00
4:35 PM,77.0,51.8,41,29.95,10.0,NW,9.2,-,N/A,,Clear,310,2013-08-07 21:35:00
4:56 PM,75.2,53.6,47,29.94,10.0,WNW,6.9,-,N/A,,Clear,300,2013-08-07 21:56:00
5:15 PM,77.0,51.8,41,29.94,10.0,NW,6.9,-,N/A,,Clear,310,2013-08-07 22:15:00
5:35 PM,75.2,51.8,44,29.95,10.0,NNW,8.1,-,N/A,,Clear,330,2013-08-07 22:35:00
5:56 PM,75.2,53.6,47,29.95,10.0,NNW,6.9,-,N/A,,Clear,340,2013-08-07 22:56:00
6:15 PM,73.4,53.6,50,29.95,10.0,NW,8.1,-,N/A,,Clear,310,2013-08-07 23:15:00
6:36 PM,73.4,53.6,50,29.96,10.0,NNW,6.9,-,N/A,,Clear,330,2013-08-07 23:36:00
6:55 PM,73.4,53.6,50,29.96,10.0,NNW,3.5,-,N/A,,Clear,340,2013-08-07 23:55:00
7:15 PM,73.4,53.6,50,29.96,10.0,North,3.5,-,N/A,,Clear,350,2013-08-08 00:15:00
7:35 PM,73.4,53.6,50,29.97,10.0,NNW,3.5,-,N/A,,Clear,330,2013-08-08 00:35:00
7:55 PM,69.8,53.6,56,29.97,10.0,NNW,4.6,-,N/A,,Clear,330,2013-08-08 00:55:00
8:16 PM,69.8,55.4,60,29.98,10.0,NW,3.5,-,N/A,,Clear,310,2013-08-08 01:16:00
8:35 PM,68.0,57.2,68,29.98,10.0,Calm,Calm,-,N/A,,Clear,0,2013-08-08 01:35:00
8:56 PM,62.6,55.4,77,29.99,10.0,Calm,Calm,-,N/A,,Clear,0,2013-08-08 01:56:00
9:16 PM,60.8,55.4,82,30.00,10.0,Calm,Calm,-,N/A,,Clear,0,2013-08-08 02:16:00
9:35 PM,60.8,53.6,77,30.01,5.0,Calm,Calm,-,N/A,,Haze,0,2013-08-08 02:35:00
9:56 PM,60.8,55.4,82,30.02,10.0,Calm,Calm,-,N/A,,Clear,0,2013-08-08 02:56:00
10:16 PM,59.0,53.6,82,30.02,10.0,NNW,3.5,-,N/A,,Clear,340,2013-08-08 03:16:00
10:35 PM,59.0,53.6,82,30.02,10.0,NW,3.5,-,N/A,,Clear,320,2013-08-08 03:35:00
10:56 PM,59.0,55.4,88,30.02,10.0,NW,3.5,-,N/A,,Clear,320,2013-08-08 03:56:00
11:16 PM,55.4,53.6,94,30.02,10.0,NNW,3.5,-,N/A,,Clear,330,2013-08-08 04:16:00
11:35 PM,57.2,55.4,94,30.03,10.0,Calm,Calm,-,N/A,,Clear,0,2013-08-08 04:35:00
11:56 PM,55.4,53.6,94,30.03,10.0,Calm,Calm,-,N/A,,Clear,0,2013-08-08 04:56:00